sensor_id;sensor_type;location;lat;lon;timestamp;temperature;humidity
49222;DHT22;35047;37.588;-122.048;2022-07-06T00:02:03;34.80;43.50
49222;DHT22;35047;37.588;-122.048;2022-07-06T00:04:30;34.70;44.00
49222;DHT22;35047;37.588;-122.048;2022-07-06T00:06:56;34.70;43.90
49222;DHT22;35047;37.588;-122.048;2022-07-06T00:09:23;34.70;43.40
49222;DHT22;35047;37.588;-122.048;2022-07-06T00:11:49;34.50;44.10
49222;DHT22;35047;37.588;-122.048;2022-07-06T00:14:17;34.40;44.10
49222;DHT22;35047;37.588;-122.048;2022-07-06T00:16:43;34.40;44.00
49222;DHT22;35047;37.588;-122.048;2022-07-06T00:19:10;34.30;44.10
49222;DHT22;35047;37.588;-122.048;2022-07-06T00:21:37;34.00;44.80
49222;DHT22;35047;37.588;-122.048;2022-07-06T00:24:03;33.90;44.90
49222;DHT22;35047;37.588;-122.048;2022-07-06T00:26:29;33.80;45.30
49222;DHT22;35047;37.588;-122.048;2022-07-06T00:28:55;33.60;45.10
49222;DHT22;35047;37.588;-122.048;2022-07-06T00:31:22;33.80;45.20
49222;DHT22;35047;37.588;-122.048;2022-07-06T00:33:49;34.00;45.10
49222;DHT22;35047;37.588;-122.048;2022-07-06T00:36:16;33.90;44.60
49222;DHT22;35047;37.588;-122.048;2022-07-06T00:38:42;33.90;47.80
49222;DHT22;35047;37.588;-122.048;2022-07-06T00:41:08;33.80;45.20
49222;DHT22;35047;37.588;-122.048;2022-07-06T00:43:53;33.80;46.80
49222;DHT22;35047;37.588;-122.048;2022-07-06T00:46:32;33.60;44.90
49222;DHT22;35047;37.588;-122.048;2022-07-06T00:48:59;33.70;44.90
49222;DHT22;35047;37.588;-122.048;2022-07-06T00:51:28;33.60;45.00
49222;DHT22;35047;37.588;-122.048;2022-07-06T00:53:55;33.50;44.90
49222;DHT22;35047;37.588;-122.048;2022-07-06T00:56:25;33.40;45.20
49222;DHT22;35047;37.588;-122.048;2022-07-06T00:58:51;33.40;45.60
49222;DHT22;35047;37.588;-122.048;2022-07-06T01:01:18;33.10;45.40
49222;DHT22;35047;37.588;-122.048;2022-07-06T01:03:46;33.20;45.40
49222;DHT22;35047;37.588;-122.048;2022-07-06T01:06:12;33.00;45.70
49222;DHT22;35047;37.588;-122.048;2022-07-06T01:08:39;33.10;45.60
49222;DHT22;35047;37.588;-122.048;2022-07-06T01:11:05;33.10;45.10
49222;DHT22;35047;37.588;-122.048;2022-07-06T01:13:32;33.10;45.60
49222;DHT22;35047;37.588;-122.048;2022-07-06T01:15:59;33.10;44.80
49222;DHT22;35047;37.588;-122.048;2022-07-06T01:18:26;32.90;46.30
49222;DHT22;35047;37.588;-122.048;2022-07-06T01:21:04;32.80;45.90
49222;DHT22;35047;37.588;-122.048;2022-07-06T01:23:31;32.80;45.80
49222;DHT22;35047;37.588;-122.048;2022-07-06T01:25:57;32.70;45.60
49222;DHT22;35047;37.588;-122.048;2022-07-06T01:28:24;32.80;57.70
49222;DHT22;35047;37.588;-122.048;2022-07-06T01:30:50;32.70;59.90
49222;DHT22;35047;37.588;-122.048;2022-07-06T01:33:16;32.60;60.20
49222;DHT22;35047;37.588;-122.048;2022-07-06T01:50:23;30.20;81.50
49222;DHT22;35047;37.588;-122.048;2022-07-06T01:52:49;29.80;50.70
49222;DHT22;35047;37.588;-122.048;2022-07-06T01:55:16;29.60;50.90
49222;DHT22;35047;37.588;-122.048;2022-07-06T01:57:42;29.20;51.40
49222;DHT22;35047;37.588;-122.048;2022-07-06T02:00:09;28.90;52.30
49222;DHT22;35047;37.588;-122.048;2022-07-06T02:02:36;28.70;52.50
49222;DHT22;35047;37.588;-122.048;2022-07-06T02:05:03;28.50;53.40
49222;DHT22;35047;37.588;-122.048;2022-07-06T02:07:29;28.50;53.80
49222;DHT22;35047;37.588;-122.048;2022-07-06T02:09:55;28.40;54.30
49222;DHT22;35047;37.588;-122.048;2022-07-06T02:12:21;28.40;54.30
49222;DHT22;35047;37.588;-122.048;2022-07-06T02:14:49;28.30;54.30
49222;DHT22;35047;37.588;-122.048;2022-07-06T02:17:16;28.20;54.60
49222;DHT22;35047;37.588;-122.048;2022-07-06T02:19:42;28.10;55.00
49222;DHT22;35047;37.588;-122.048;2022-07-06T02:22:08;28.00;55.00
49222;DHT22;35047;37.588;-122.048;2022-07-06T02:24:34;28.00;55.30
49222;DHT22;35047;37.588;-122.048;2022-07-06T02:27:00;27.70;55.70
49222;DHT22;35047;37.588;-122.048;2022-07-06T02:29:27;27.50;56.10
49222;DHT22;35047;37.588;-122.048;2022-07-06T02:31:53;27.40;56.30
49222;DHT22;35047;37.588;-122.048;2022-07-06T02:34:19;27.20;56.90
49222;DHT22;35047;37.588;-122.048;2022-07-06T02:36:45;27.20;56.60
49222;DHT22;35047;37.588;-122.048;2022-07-06T02:39:11;27.20;57.20
49222;DHT22;35047;37.588;-122.048;2022-07-06T02:41:38;27.10;57.20
49222;DHT22;35047;37.588;-122.048;2022-07-06T02:44:04;27.10;57.10
49222;DHT22;35047;37.588;-122.048;2022-07-06T02:46:31;27.00;57.20
49222;DHT22;35047;37.588;-122.048;2022-07-06T02:48:57;26.90;57.70
49222;DHT22;35047;37.588;-122.048;2022-07-06T02:51:24;26.90;57.90
49222;DHT22;35047;37.588;-122.048;2022-07-06T02:53:51;26.90;57.90
49222;DHT22;35047;37.588;-122.048;2022-07-06T02:56:18;26.70;58.10
49222;DHT22;35047;37.588;-122.048;2022-07-06T02:58:44;26.60;58.50
49222;DHT22;35047;37.588;-122.048;2022-07-06T03:01:11;26.70;58.70
49222;DHT22;35047;37.588;-122.048;2022-07-06T03:03:37;26.70;58.60
49222;DHT22;35047;37.588;-122.048;2022-07-06T03:06:04;26.70;58.60
49222;DHT22;35047;37.588;-122.048;2022-07-06T03:08:30;26.60;58.90
49222;DHT22;35047;37.588;-122.048;2022-07-06T03:10:57;26.60;58.90
49222;DHT22;35047;37.588;-122.048;2022-07-06T03:13:23;26.60;59.00
49222;DHT22;35047;37.588;-122.048;2022-07-06T03:15:50;26.60;58.90
49222;DHT22;35047;37.588;-122.048;2022-07-06T03:18:16;26.60;58.90
49222;DHT22;35047;37.588;-122.048;2022-07-06T03:20:43;26.50;58.90
49222;DHT22;35047;37.588;-122.048;2022-07-06T03:23:10;26.50;59.30
49222;DHT22;35047;37.588;-122.048;2022-07-06T03:25:36;26.50;59.50
49222;DHT22;35047;37.588;-122.048;2022-07-06T03:28:02;26.50;59.70
49222;DHT22;35047;37.588;-122.048;2022-07-06T03:30:28;26.30;60.00
49222;DHT22;35047;37.588;-122.048;2022-07-06T03:32:55;26.30;60.60
49222;DHT22;35047;37.588;-122.048;2022-07-06T03:35:21;26.20;60.90
49222;DHT22;35047;37.588;-122.048;2022-07-06T03:37:47;26.00;61.30
49222;DHT22;35047;37.588;-122.048;2022-07-06T03:40:14;26.00;61.60
49222;DHT22;35047;37.588;-122.048;2022-07-06T03:42:41;26.00;61.70
49222;DHT22;35047;37.588;-122.048;2022-07-06T03:45:08;25.90;61.70
49222;DHT22;35047;37.588;-122.048;2022-07-06T03:47:34;25.80;62.00
49222;DHT22;35047;37.588;-122.048;2022-07-06T03:50:00;25.80;62.50
49222;DHT22;35047;37.588;-122.048;2022-07-06T03:52:27;25.70;62.60
49222;DHT22;35047;37.588;-122.048;2022-07-06T03:54:54;25.60;62.80
49222;DHT22;35047;37.588;-122.048;2022-07-06T03:57:20;25.60;62.90
49222;DHT22;35047;37.588;-122.048;2022-07-06T03:59:47;25.50;63.20
49222;DHT22;35047;37.588;-122.048;2022-07-06T04:02:13;25.60;63.40
49222;DHT22;35047;37.588;-122.048;2022-07-06T04:04:40;25.60;63.30
49222;DHT22;35047;37.588;-122.048;2022-07-06T04:07:07;25.60;63.20
49222;DHT22;35047;37.588;-122.048;2022-07-06T04:09:34;25.60;63.20
49222;DHT22;35047;37.588;-122.048;2022-07-06T04:12:00;25.70;63.30
49222;DHT22;35047;37.588;-122.048;2022-07-06T04:14:26;25.70;63.30
49222;DHT22;35047;37.588;-122.048;2022-07-06T04:16:53;25.70;63.30
49222;DHT22;35047;37.588;-122.048;2022-07-06T04:19:19;25.70;63.00
49222;DHT22;35047;37.588;-122.048;2022-07-06T04:21:45;25.70;63.10
49222;DHT22;35047;37.588;-122.048;2022-07-06T04:24:11;25.70;63.20
49222;DHT22;35047;37.588;-122.048;2022-07-06T04:26:37;25.70;63.20
49222;DHT22;35047;37.588;-122.048;2022-07-06T04:29:03;25.70;63.20
49222;DHT22;35047;37.588;-122.048;2022-07-06T04:31:30;25.60;63.30
49222;DHT22;35047;37.588;-122.048;2022-07-06T04:33:57;25.60;63.60
49222;DHT22;35047;37.588;-122.048;2022-07-06T04:36:23;25.60;63.70
49222;DHT22;35047;37.588;-122.048;2022-07-06T04:38:49;25.60;63.80
49222;DHT22;35047;37.588;-122.048;2022-07-06T04:41:16;25.70;63.70
49222;DHT22;35047;37.588;-122.048;2022-07-06T04:43:42;25.60;63.60
49222;DHT22;35047;37.588;-122.048;2022-07-06T04:46:09;25.60;63.70
49222;DHT22;35047;37.588;-122.048;2022-07-06T04:48:36;25.60;63.90
49222;DHT22;35047;37.588;-122.048;2022-07-06T04:51:04;25.60;64.20
49222;DHT22;35047;37.588;-122.048;2022-07-06T04:53:31;25.60;64.40
49222;DHT22;35047;37.588;-122.048;2022-07-06T04:55:57;25.50;64.10
49222;DHT22;35047;37.588;-122.048;2022-07-06T04:58:24;25.50;64.10
49222;DHT22;35047;37.588;-122.048;2022-07-06T05:00:51;25.60;64.10
49222;DHT22;35047;37.588;-122.048;2022-07-06T05:03:18;25.50;63.80
49222;DHT22;35047;37.588;-122.048;2022-07-06T05:05:44;25.50;64.00
49222;DHT22;35047;37.588;-122.048;2022-07-06T05:08:10;25.50;64.30
49222;DHT22;35047;37.588;-122.048;2022-07-06T05:10:36;25.50;63.90
49222;DHT22;35047;37.588;-122.048;2022-07-06T05:13:02;25.50;63.90
49222;DHT22;35047;37.588;-122.048;2022-07-06T05:15:29;25.50;63.90
49222;DHT22;35047;37.588;-122.048;2022-07-06T05:17:56;25.50;63.70
49222;DHT22;35047;37.588;-122.048;2022-07-06T05:20:23;25.50;63.80
49222;DHT22;35047;37.588;-122.048;2022-07-06T05:22:49;25.50;63.60
49222;DHT22;35047;37.588;-122.048;2022-07-06T05:25:15;25.50;63.80
49222;DHT22;35047;37.588;-122.048;2022-07-06T05:27:42;25.50;63.40
49222;DHT22;35047;37.588;-122.048;2022-07-06T05:30:09;25.60;64.10
49222;DHT22;35047;37.588;-122.048;2022-07-06T05:32:35;25.50;64.30
49222;DHT22;35047;37.588;-122.048;2022-07-06T05:35:02;25.50;64.50
49222;DHT22;35047;37.588;-122.048;2022-07-06T05:37:28;25.50;64.60
49222;DHT22;35047;37.588;-122.048;2022-07-06T05:39:55;25.50;64.90
49222;DHT22;35047;37.588;-122.048;2022-07-06T05:42:21;25.40;64.90
49222;DHT22;35047;37.588;-122.048;2022-07-06T05:44:48;25.40;65.10
49222;DHT22;35047;37.588;-122.048;2022-07-06T05:47:14;25.30;64.90
49222;DHT22;35047;37.588;-122.048;2022-07-06T05:49:59;25.40;64.90
49222;DHT22;35047;37.588;-122.048;2022-07-06T05:52:41;25.40;64.60
49222;DHT22;35047;37.588;-122.048;2022-07-06T05:55:09;25.40;64.30
49222;DHT22;35047;37.588;-122.048;2022-07-06T05:57:35;25.40;64.60
49222;DHT22;35047;37.588;-122.048;2022-07-06T06:00:03;25.50;64.30
49222;DHT22;35047;37.588;-122.048;2022-07-06T06:02:39;25.50;63.60
49222;DHT22;35047;37.588;-122.048;2022-07-06T06:05:07;25.30;63.90
49222;DHT22;35047;37.588;-122.048;2022-07-06T06:07:36;25.40;63.70
49222;DHT22;35047;37.588;-122.048;2022-07-06T06:10:04;25.40;63.60
49222;DHT22;35047;37.588;-122.048;2022-07-06T06:12:30;25.40;63.50
49222;DHT22;35047;37.588;-122.048;2022-07-06T06:14:56;25.40;63.30
49222;DHT22;35047;37.588;-122.048;2022-07-06T06:17:23;25.50;63.30
49222;DHT22;35047;37.588;-122.048;2022-07-06T06:19:49;25.50;63.50
49222;DHT22;35047;37.588;-122.048;2022-07-06T06:22:15;25.50;63.10
49222;DHT22;35047;37.588;-122.048;2022-07-06T06:24:41;25.50;63.20
49222;DHT22;35047;37.588;-122.048;2022-07-06T06:27:08;25.50;63.60
49222;DHT22;35047;37.588;-122.048;2022-07-06T06:29:34;25.50;63.80
49222;DHT22;35047;37.588;-122.048;2022-07-06T06:32:01;25.50;63.90
49222;DHT22;35047;37.588;-122.048;2022-07-06T06:34:27;25.50;63.90
49222;DHT22;35047;37.588;-122.048;2022-07-06T06:36:54;25.40;64.20
49222;DHT22;35047;37.588;-122.048;2022-07-06T06:39:21;25.40;64.30
49222;DHT22;35047;37.588;-122.048;2022-07-06T06:41:47;25.30;64.80
49222;DHT22;35047;37.588;-122.048;2022-07-06T06:44:13;25.30;64.60
49222;DHT22;35047;37.588;-122.048;2022-07-06T06:46:40;25.30;64.50
49222;DHT22;35047;37.588;-122.048;2022-07-06T06:49:07;25.30;64.10
49222;DHT22;35047;37.588;-122.048;2022-07-06T06:51:33;25.30;63.70
49222;DHT22;35047;37.588;-122.048;2022-07-06T06:53:59;25.30;63.90
49222;DHT22;35047;37.588;-122.048;2022-07-06T06:56:26;25.20;63.90
49222;DHT22;35047;37.588;-122.048;2022-07-06T06:58:52;25.10;63.90
49222;DHT22;35047;37.588;-122.048;2022-07-06T07:01:19;25.10;63.80
49222;DHT22;35047;37.588;-122.048;2022-07-06T07:03:45;25.20;63.90
49222;DHT22;35047;37.588;-122.048;2022-07-06T07:06:12;25.20;63.70
49222;DHT22;35047;37.588;-122.048;2022-07-06T07:08:38;25.20;64.30
49222;DHT22;35047;37.588;-122.048;2022-07-06T07:11:05;25.20;64.10
49222;DHT22;35047;37.588;-122.048;2022-07-06T07:13:32;25.20;64.10
49222;DHT22;35047;37.588;-122.048;2022-07-06T07:15:58;25.20;64.00
49222;DHT22;35047;37.588;-122.048;2022-07-06T07:18:25;25.30;64.10
49222;DHT22;35047;37.588;-122.048;2022-07-06T07:20:51;25.20;64.40
49222;DHT22;35047;37.588;-122.048;2022-07-06T07:23:18;25.30;64.40
49222;DHT22;35047;37.588;-122.048;2022-07-06T07:25:44;25.30;64.20
49222;DHT22;35047;37.588;-122.048;2022-07-06T07:28:10;25.20;64.90
49222;DHT22;35047;37.588;-122.048;2022-07-06T07:30:37;25.20;64.80
49222;DHT22;35047;37.588;-122.048;2022-07-06T07:33:04;25.20;64.70
49222;DHT22;35047;37.588;-122.048;2022-07-06T07:35:30;25.10;64.80
49222;DHT22;35047;37.588;-122.048;2022-07-06T07:37:56;25.00;64.70
49222;DHT22;35047;37.588;-122.048;2022-07-06T07:40:23;25.00;64.30
49222;DHT22;35047;37.588;-122.048;2022-07-06T07:42:49;24.90;64.30
49222;DHT22;35047;37.588;-122.048;2022-07-06T07:45:16;24.90;65.10
49222;DHT22;35047;37.588;-122.048;2022-07-06T07:47:42;24.90;65.30
49222;DHT22;35047;37.588;-122.048;2022-07-06T07:50:08;24.90;64.70
49222;DHT22;35047;37.588;-122.048;2022-07-06T07:52:35;25.00;64.60
49222;DHT22;35047;37.588;-122.048;2022-07-06T07:55:02;25.10;64.70
49222;DHT22;35047;37.588;-122.048;2022-07-06T07:57:29;25.10;64.20
49222;DHT22;35047;37.588;-122.048;2022-07-06T07:59:55;25.10;64.10
49222;DHT22;35047;37.588;-122.048;2022-07-06T08:02:21;24.90;64.50
49222;DHT22;35047;37.588;-122.048;2022-07-06T08:04:48;24.90;64.70
49222;DHT22;35047;37.588;-122.048;2022-07-06T08:07:14;24.90;64.90
49222;DHT22;35047;37.588;-122.048;2022-07-06T08:09:41;25.00;64.90
49222;DHT22;35047;37.588;-122.048;2022-07-06T08:12:08;25.00;64.60
49222;DHT22;35047;37.588;-122.048;2022-07-06T08:14:34;24.90;64.70
49222;DHT22;35047;37.588;-122.048;2022-07-06T08:17:03;25.00;65.00
49222;DHT22;35047;37.588;-122.048;2022-07-06T08:19:29;24.90;64.60
49222;DHT22;35047;37.588;-122.048;2022-07-06T08:21:56;24.90;64.70
49222;DHT22;35047;37.588;-122.048;2022-07-06T08:24:25;25.00;64.90
49222;DHT22;35047;37.588;-122.048;2022-07-06T08:26:52;25.00;64.70
49222;DHT22;35047;37.588;-122.048;2022-07-06T08:29:19;25.00;64.70
49222;DHT22;35047;37.588;-122.048;2022-07-06T08:31:46;25.10;64.50
49222;DHT22;35047;37.588;-122.048;2022-07-06T08:34:13;25.00;64.10
49222;DHT22;35047;37.588;-122.048;2022-07-06T08:36:39;25.00;63.50
49222;DHT22;35047;37.588;-122.048;2022-07-06T08:39:06;25.00;64.30
49222;DHT22;35047;37.588;-122.048;2022-07-06T08:41:33;25.10;63.80
49222;DHT22;35047;37.588;-122.048;2022-07-06T08:44:00;25.10;63.80
49222;DHT22;35047;37.588;-122.048;2022-07-06T08:46:27;25.10;63.40
49222;DHT22;35047;37.588;-122.048;2022-07-06T08:48:55;25.10;63.40
49222;DHT22;35047;37.588;-122.048;2022-07-06T08:51:21;25.20;63.50
49222;DHT22;35047;37.588;-122.048;2022-07-06T08:53:48;25.20;63.40
49222;DHT22;35047;37.588;-122.048;2022-07-06T08:56:16;25.20;63.00
49222;DHT22;35047;37.588;-122.048;2022-07-06T08:58:42;25.20;63.00
49222;DHT22;35047;37.588;-122.048;2022-07-06T09:01:10;25.20;63.00
49222;DHT22;35047;37.588;-122.048;2022-07-06T09:03:37;25.20;63.10
49222;DHT22;35047;37.588;-122.048;2022-07-06T09:06:04;25.20;63.20
49222;DHT22;35047;37.588;-122.048;2022-07-06T09:08:33;25.20;63.30
49222;DHT22;35047;37.588;-122.048;2022-07-06T09:11:02;25.20;63.20
49222;DHT22;35047;37.588;-122.048;2022-07-06T09:13:29;25.30;63.00
49222;DHT22;35047;37.588;-122.048;2022-07-06T09:15:55;25.20;63.00
49222;DHT22;35047;37.588;-122.048;2022-07-06T09:18:22;25.30;63.00
49222;DHT22;35047;37.588;-122.048;2022-07-06T09:20:49;25.20;62.50
49222;DHT22;35047;37.588;-122.048;2022-07-06T09:23:15;25.20;62.10
49222;DHT22;35047;37.588;-122.048;2022-07-06T09:25:42;25.20;62.50
49222;DHT22;35047;37.588;-122.048;2022-07-06T09:28:13;25.10;62.30
49222;DHT22;35047;37.588;-122.048;2022-07-06T09:30:39;25.10;62.20
49222;DHT22;35047;37.588;-122.048;2022-07-06T09:33:07;25.20;62.20
49222;DHT22;35047;37.588;-122.048;2022-07-06T09:35:37;25.10;62.10
49222;DHT22;35047;37.588;-122.048;2022-07-06T09:40:33;25.10;62.10
49222;DHT22;35047;37.588;-122.048;2022-07-06T09:43:07;25.00;62.20
49222;DHT22;35047;37.588;-122.048;2022-07-06T09:45:34;25.10;62.40
49222;DHT22;35047;37.588;-122.048;2022-07-06T09:48:10;25.10;62.20
49222;DHT22;35047;37.588;-122.048;2022-07-06T09:50:43;25.10;62.60
49222;DHT22;35047;37.588;-122.048;2022-07-06T09:53:10;25.10;62.50
49222;DHT22;35047;37.588;-122.048;2022-07-06T09:55:37;25.10;62.60
49222;DHT22;35047;37.588;-122.048;2022-07-06T09:58:03;25.10;62.70
49222;DHT22;35047;37.588;-122.048;2022-07-06T10:00:30;25.10;62.80
49222;DHT22;35047;37.588;-122.048;2022-07-06T10:02:56;25.10;63.00
49222;DHT22;35047;37.588;-122.048;2022-07-06T10:05:23;25.00;63.40
49222;DHT22;35047;37.588;-122.048;2022-07-06T10:07:59;25.00;63.80
49222;DHT22;35047;37.588;-122.048;2022-07-06T10:10:29;24.90;64.00
49222;DHT22;35047;37.588;-122.048;2022-07-06T10:12:56;24.90;64.40
49222;DHT22;35047;37.588;-122.048;2022-07-06T10:15:26;24.90;64.40
49222;DHT22;35047;37.588;-122.048;2022-07-06T10:17:53;24.90;64.30
49222;DHT22;35047;37.588;-122.048;2022-07-06T10:20:21;24.90;64.10
49222;DHT22;35047;37.588;-122.048;2022-07-06T10:22:48;24.90;64.00
49222;DHT22;35047;37.588;-122.048;2022-07-06T10:25:18;24.80;63.90
49222;DHT22;35047;37.588;-122.048;2022-07-06T10:27:45;24.80;63.80
49222;DHT22;35047;37.588;-122.048;2022-07-06T10:30:12;24.80;63.90
49222;DHT22;35047;37.588;-122.048;2022-07-06T10:32:38;24.80;63.80
49222;DHT22;35047;37.588;-122.048;2022-07-06T10:35:06;24.80;63.80
49222;DHT22;35047;37.588;-122.048;2022-07-06T10:37:32;24.80;63.50
49222;DHT22;35047;37.588;-122.048;2022-07-06T10:39:59;24.80;63.80
49222;DHT22;35047;37.588;-122.048;2022-07-06T10:45:12;24.70;64.10
49222;DHT22;35047;37.588;-122.048;2022-07-06T10:47:39;24.70;64.40
49222;DHT22;35047;37.588;-122.048;2022-07-06T10:50:06;24.70;64.50
49222;DHT22;35047;37.588;-122.048;2022-07-06T10:52:49;24.70;64.30
49222;DHT22;35047;37.588;-122.048;2022-07-06T10:58:00;24.80;64.60
49222;DHT22;35047;37.588;-122.048;2022-07-06T11:00:42;24.70;64.60
49222;DHT22;35047;37.588;-122.048;2022-07-06T11:05:57;24.70;65.30
49222;DHT22;35047;37.588;-122.048;2022-07-06T11:08:27;24.70;65.20
49222;DHT22;35047;37.588;-122.048;2022-07-06T11:11:10;24.70;64.70
49222;DHT22;35047;37.588;-122.048;2022-07-06T11:13:43;24.70;64.60
49222;DHT22;35047;37.588;-122.048;2022-07-06T11:16:15;24.70;64.70
49222;DHT22;35047;37.588;-122.048;2022-07-06T11:18:42;24.70;63.90
49222;DHT22;35047;37.588;-122.048;2022-07-06T11:21:18;24.70;63.60
49222;DHT22;35047;37.588;-122.048;2022-07-06T11:23:45;24.70;63.60
49222;DHT22;35047;37.588;-122.048;2022-07-06T11:26:12;24.60;63.60
49222;DHT22;35047;37.588;-122.048;2022-07-06T11:28:39;24.70;63.90
49222;DHT22;35047;37.588;-122.048;2022-07-06T11:31:06;24.70;63.30
49222;DHT22;35047;37.588;-122.048;2022-07-06T11:33:33;24.60;64.20
49222;DHT22;35047;37.588;-122.048;2022-07-06T11:36:12;24.60;63.80
49222;DHT22;35047;37.588;-122.048;2022-07-06T11:38:39;24.70;63.80
49222;DHT22;35047;37.588;-122.048;2022-07-06T11:41:05;24.70;64.10
49222;DHT22;35047;37.588;-122.048;2022-07-06T11:43:32;24.60;64.10
49222;DHT22;35047;37.588;-122.048;2022-07-06T11:45:58;24.60;64.40
49222;DHT22;35047;37.588;-122.048;2022-07-06T11:48:25;24.50;64.40
49222;DHT22;35047;37.588;-122.048;2022-07-06T11:53:25;24.60;64.30
49222;DHT22;35047;37.588;-122.048;2022-07-06T11:55:52;24.70;64.00
49222;DHT22;35047;37.588;-122.048;2022-07-06T11:58:20;24.60;62.90
49222;DHT22;35047;37.588;-122.048;2022-07-06T12:01:06;24.60;62.60
49222;DHT22;35047;37.588;-122.048;2022-07-06T12:03:33;24.50;62.80
49222;DHT22;35047;37.588;-122.048;2022-07-06T12:06:01;24.50;63.10
49222;DHT22;35047;37.588;-122.048;2022-07-06T12:08:28;24.50;63.30
49222;DHT22;35047;37.588;-122.048;2022-07-06T12:10:54;24.50;63.30
49222;DHT22;35047;37.588;-122.048;2022-07-06T12:13:22;24.40;63.80
49222;DHT22;35047;37.588;-122.048;2022-07-06T12:15:50;24.40;68.20
49222;DHT22;35047;37.588;-122.048;2022-07-06T12:18:17;24.50;70.20
49222;DHT22;35047;37.588;-122.048;2022-07-06T12:20:43;24.60;71.10
49222;DHT22;35047;37.588;-122.048;2022-07-06T12:23:09;24.60;69.10
49222;DHT22;35047;37.588;-122.048;2022-07-06T12:25:36;24.50;66.70
49222;DHT22;35047;37.588;-122.048;2022-07-06T12:28:03;24.50;68.60
49222;DHT22;35047;37.588;-122.048;2022-07-06T12:30:30;24.40;67.00
49222;DHT22;35047;37.588;-122.048;2022-07-06T12:33:14;24.40;68.40
49222;DHT22;35047;37.588;-122.048;2022-07-06T12:35:41;24.50;71.60
49222;DHT22;35047;37.588;-122.048;2022-07-06T12:38:08;24.50;71.20
49222;DHT22;35047;37.588;-122.048;2022-07-06T12:40:38;24.30;69.20
49222;DHT22;35047;37.588;-122.048;2022-07-06T12:43:04;24.20;70.80
49222;DHT22;35047;37.588;-122.048;2022-07-06T12:45:31;24.10;69.60
49222;DHT22;35047;37.588;-122.048;2022-07-06T12:48:04;24.10;69.00
49222;DHT22;35047;37.588;-122.048;2022-07-06T12:50:35;24.10;69.50
49222;DHT22;35047;37.588;-122.048;2022-07-06T12:53:02;24.10;69.00
49222;DHT22;35047;37.588;-122.048;2022-07-06T12:55:30;24.20;70.80
49222;DHT22;35047;37.588;-122.048;2022-07-06T12:57:56;24.30;70.60
49222;DHT22;35047;37.588;-122.048;2022-07-06T13:00:24;24.10;67.50
49222;DHT22;35047;37.588;-122.048;2022-07-06T13:02:51;24.20;68.10
49222;DHT22;35047;37.588;-122.048;2022-07-06T13:05:22;24.10;69.40
49222;DHT22;35047;37.588;-122.048;2022-07-06T13:07:56;24.30;69.80
49222;DHT22;35047;37.588;-122.048;2022-07-06T13:10:24;24.20;68.50
49222;DHT22;35047;37.588;-122.048;2022-07-06T13:12:50;24.30;69.80
49222;DHT22;35047;37.588;-122.048;2022-07-06T13:15:17;24.30;68.50
49222;DHT22;35047;37.588;-122.048;2022-07-06T13:17:44;24.30;68.90
49222;DHT22;35047;37.588;-122.048;2022-07-06T13:20:12;24.30;68.70
49222;DHT22;35047;37.588;-122.048;2022-07-06T13:22:38;24.30;67.90
49222;DHT22;35047;37.588;-122.048;2022-07-06T13:25:05;24.30;69.20
49222;DHT22;35047;37.588;-122.048;2022-07-06T13:27:32;24.40;68.40
49222;DHT22;35047;37.588;-122.048;2022-07-06T13:29:58;24.40;67.80
49222;DHT22;35047;37.588;-122.048;2022-07-06T13:32:25;24.50;67.70
49222;DHT22;35047;37.588;-122.048;2022-07-06T13:34:52;24.50;68.30
49222;DHT22;35047;37.588;-122.048;2022-07-06T13:37:19;24.50;67.50
49222;DHT22;35047;37.588;-122.048;2022-07-06T13:39:46;24.50;67.70
49222;DHT22;35047;37.588;-122.048;2022-07-06T13:42:12;24.50;66.50
49222;DHT22;35047;37.588;-122.048;2022-07-06T13:44:38;24.40;68.00
49222;DHT22;35047;37.588;-122.048;2022-07-06T13:47:05;24.50;68.50
49222;DHT22;35047;37.588;-122.048;2022-07-06T13:49:31;24.40;67.20
49222;DHT22;35047;37.588;-122.048;2022-07-06T13:51:58;24.30;66.70
49222;DHT22;35047;37.588;-122.048;2022-07-06T13:54:29;24.30;66.50
49222;DHT22;35047;37.588;-122.048;2022-07-06T13:56:55;24.30;67.40
49222;DHT22;35047;37.588;-122.048;2022-07-06T13:59:25;24.20;65.60
49222;DHT22;35047;37.588;-122.048;2022-07-06T14:01:52;24.10;67.00
49222;DHT22;35047;37.588;-122.048;2022-07-06T14:04:18;24.20;67.70
49222;DHT22;35047;37.588;-122.048;2022-07-06T14:06:45;24.20;65.70
49222;DHT22;35047;37.588;-122.048;2022-07-06T14:09:11;24.00;66.10
49222;DHT22;35047;37.588;-122.048;2022-07-06T14:11:37;24.20;66.10
49222;DHT22;35047;37.588;-122.048;2022-07-06T14:14:05;23.90;65.60
49222;DHT22;35047;37.588;-122.048;2022-07-06T14:16:33;23.60;65.70
49222;DHT22;35047;37.588;-122.048;2022-07-06T14:18:59;23.50;66.20
49222;DHT22;35047;37.588;-122.048;2022-07-06T14:21:26;23.60;68.00
49222;DHT22;35047;37.588;-122.048;2022-07-06T14:23:52;23.50;67.70
49222;DHT22;35047;37.588;-122.048;2022-07-06T14:26:19;23.40;67.20
49222;DHT22;35047;37.588;-122.048;2022-07-06T14:28:45;23.50;68.70
49222;DHT22;35047;37.588;-122.048;2022-07-06T14:31:11;23.80;69.00
49222;DHT22;35047;37.588;-122.048;2022-07-06T14:33:39;23.80;66.50
49222;DHT22;35047;37.588;-122.048;2022-07-06T14:36:05;24.00;67.20
49222;DHT22;35047;37.588;-122.048;2022-07-06T14:38:31;24.10;67.20
49222;DHT22;35047;37.588;-122.048;2022-07-06T14:40:57;24.10;66.50
49222;DHT22;35047;37.588;-122.048;2022-07-06T14:43:24;24.10;65.30
49222;DHT22;35047;37.588;-122.048;2022-07-06T14:45:50;24.10;66.70
49222;DHT22;35047;37.588;-122.048;2022-07-06T14:48:17;24.30;65.70
49222;DHT22;35047;37.588;-122.048;2022-07-06T14:50:44;24.00;65.00
49222;DHT22;35047;37.588;-122.048;2022-07-06T14:53:10;24.20;66.80
49222;DHT22;35047;37.588;-122.048;2022-07-06T14:55:36;24.30;65.00
49222;DHT22;35047;37.588;-122.048;2022-07-06T14:58:02;24.30;67.50
49222;DHT22;35047;37.588;-122.048;2022-07-06T15:00:30;24.30;66.20
49222;DHT22;35047;37.588;-122.048;2022-07-06T15:02:56;24.30;65.80
49222;DHT22;35047;37.588;-122.048;2022-07-06T15:05:22;24.30;67.80
49222;DHT22;35047;37.588;-122.048;2022-07-06T15:07:49;24.40;66.60
49222;DHT22;35047;37.588;-122.048;2022-07-06T15:10:16;24.60;66.10
49222;DHT22;35047;37.588;-122.048;2022-07-06T15:12:42;24.80;65.60
49222;DHT22;35047;37.588;-122.048;2022-07-06T15:15:08;24.90;65.90
49222;DHT22;35047;37.588;-122.048;2022-07-06T15:17:35;25.00;65.10